Time;durP1;ratioP1;P1;durP2;ratioP2;P2;SDS_P1;SDS_P2;PMS_P1;PMS_P2;Temp;Humidity;BMP_temperature;BMP_pressure;BME280_temperature;BME280_humidity;BME280_pressure;Samples;Min_cycle;Max_cycle;Signal;HPM_P1;HPM_P2
2023/05/10 00:01:16;;;;;;;0.40;0.40;;;13.90;99.90;;;;;;5111305;28;20654;-72
2023/05/10 00:03:43;;;;;;;0.70;0.43;;;13.90;99.90;;;;;;5111997;28;20641;-72
2023/05/10 00:06:10;;;;;;;0.60;0.60;;;13.90;99.90;;;;;;5111684;28;20643;-72
2023/05/10 00:08:36;;;;;;;0.43;0.40;;;13.70;99.90;;;;;;5112535;28;20632;-72
2023/05/10 00:11:03;;;;;;;0.50;0.50;;;13.80;99.90;;;;;;5112016;28;20646;-72
2023/05/10 00:13:30;;;;;;;0.50;0.30;;;13.70;99.90;;;;;;5112179;28;20619;-72
2023/05/10 00:15:58;;;;;;;0.43;0.37;;;13.60;99.90;;;;;;5112312;28;20647;-72
2023/05/10 00:18:25;;;;;;;0.40;0.30;;;13.40;99.90;;;;;;5111955;28;20658;-72
2023/05/10 00:20:52;;;;;;;0.40;0.30;;;13.40;99.90;;;;;;5111451;28;20676;-72
2023/05/10 00:23:19;;;;;;;0.40;0.20;;;13.30;99.90;;;;;;5111822;28;20655;-72
2023/05/10 00:25:46;;;;;;;0.40;0.30;;;13.20;99.90;;;;;;5111763;28;20745;-72
2023/05/10 00:28:12;;;;;;;0.50;0.40;;;13.30;99.90;;;;;;5111775;28;20626;-72
2023/05/10 00:30:39;;;;;;;0.40;0.30;;;13.20;99.90;;;;;;5110666;28;20651;-72
2023/05/10 00:33:07;;;;;;;0.40;0.20;;;13.20;99.90;;;;;;5110803;28;21254;-72
2023/05/10 00:35:34;;;;;;;0.50;0.40;;;13.30;99.90;;;;;;5111599;28;20648;-72
2023/05/10 00:38:02;;;;;;;0.40;0.40;;;13.10;99.90;;;;;;5111662;28;20727;-72
2023/05/10 00:40:30;;;;;;;0.60;0.40;;;13.10;99.90;;;;;;5111045;28;20639;-71
2023/05/10 00:42:57;;;;;;;0.80;0.50;;;13.20;99.90;;;;;;5111669;28;20647;-72
2023/05/10 00:45:24;;;;;;;0.30;0.20;;;13.00;99.90;;;;;;5111495;27;20658;-72
2023/05/10 00:47:54;;;;;;;0.40;0.30;;;12.90;99.90;;;;;;5111796;28;20614;-71
2023/05/10 00:50:23;;;;;;;0.30;0.20;;;13.00;99.90;;;;;;5110474;28;20633;-71
2023/05/10 00:52:50;;;;;;;0.40;0.30;;;12.90;99.90;;;;;;5111641;28;20688;-71
2023/05/10 00:55:17;;;;;;;0.73;0.50;;;12.80;99.90;;;;;;5111086;28;20622;-71
2023/05/10 00:57:45;;;;;;;0.30;0.30;;;12.70;99.90;;;;;;5111151;28;21163;-72
2023/05/10 01:00:17;;;;;;;0.50;0.40;;;12.70;99.90;;;;;;5110474;28;20614;-71
2023/05/10 01:02:44;;;;;;;0.30;0.20;;;12.70;99.90;;;;;;5111283;28;20626;-71
2023/05/10 01:05:11;;;;;;;0.63;0.20;;;12.70;99.90;;;;;;5109821;28;20987;-71
2023/05/10 01:07:40;;;;;;;0.30;0.10;;;12.70;99.90;;;;;;5110833;28;20622;-71
2023/05/10 01:10:10;;;;;;;0.30;0.20;;;12.70;99.90;;;;;;5110283;28;20614;-71
2023/05/10 01:12:40;;;;;;;0.40;0.20;;;12.60;99.90;;;;;;5111318;28;20614;-71
2023/05/10 01:15:10;;;;;;;0.30;0.20;;;12.60;99.90;;;;;;5111331;28;20607;-71
2023/05/10 01:17:41;;;;;;;0.30;0.20;;;12.50;99.90;;;;;;5113924;28;21025;-71
2023/05/10 01:20:11;;;;;;;0.30;0.20;;;12.50;99.90;;;;;;5114860;28;20709;-71
2023/05/10 01:23:05;;;;;;;0.40;0.30;;;12.60;99.90;;;;;;5115069;28;20679;-71
2023/05/10 01:25:57;;;;;;;0.30;0.20;;;12.50;99.90;;;;;;5115505;28;20738;-71
2023/05/10 01:28:50;;;;;;;0.30;0.20;;;12.50;99.90;;;;;;5115315;28;20619;-71
2023/05/10 01:31:39;;;;;;;0.30;0.20;;;12.50;99.90;;;;;;5094938;28;21079;-71
2023/05/10 01:34:10;;;;;;;0.30;0.20;;;12.50;99.90;;;;;;5101750;28;21037;-71
2023/05/10 01:36:44;;;;;;;0.40;0.30;;;12.50;99.90;;;;;;5114828;28;20661;-71
2023/05/10 01:39:18;;;;;;;1.47;0.33;;;12.50;99.90;;;;;;5107618;28;20610;-71
2023/05/10 01:41:52;;;;;;;0.40;0.30;;;12.50;99.90;;;;;;5114625;28;20653;-71
2023/05/10 01:44:29;;;;;;;0.30;0.20;;;12.50;99.90;;;;;;5115193;28;20657;-71
2023/05/10 01:47:04;;;;;;;0.40;0.37;;;12.60;99.90;;;;;;5114845;27;20754;-71
2023/05/10 01:49:40;;;;;;;0.30;0.30;;;12.60;99.90;;;;;;5114542;28;20961;-71
2023/05/10 01:52:12;;;;;;;0.37;0.23;;;12.60;99.90;;;;;;5115007;28;21185;-71
2023/05/10 01:54:44;;;;;;;0.30;0.20;;;12.50;99.90;;;;;;5115077;28;20631;-71
2023/05/10 01:57:14;;;;;;;0.30;0.20;;;12.50;99.90;;;;;;5114956;28;20646;-71
2023/05/10 01:59:46;;;;;;;0.40;0.20;;;12.50;99.90;;;;;;5114033;28;20631;-71
2023/05/10 02:02:19;;;;;;;0.60;0.60;;;12.50;99.90;;;;;;5114432;28;21213;-71
2023/05/10 02:04:50;;;;;;;0.30;0.20;;;12.60;99.90;;;;;;5114613;27;20645;-71
2023/05/10 02:07:18;;;;;;;0.30;0.20;;;12.60;99.90;;;;;;5114527;28;20734;-71
2023/05/10 02:09:47;;;;;;;0.30;0.30;;;12.50;99.90;;;;;;5114290;28;21003;-71
2023/05/10 02:12:16;;;;;;;0.30;0.20;;;12.50;99.90;;;;;;5114427;28;21215;-71
2023/05/10 02:14:44;;;;;;;0.30;0.23;;;12.40;99.90;;;;;;5105937;28;20618;-71
2023/05/10 02:17:12;;;;;;;0.30;0.20;;;12.50;99.90;;;;;;5114629;28;20872;-71
2023/05/10 02:19:42;;;;;;;0.30;0.20;;;12.50;99.90;;;;;;5113753;28;20997;-71
2023/05/10 02:22:11;;;;;;;0.30;0.20;;;12.50;99.90;;;;;;5114217;28;21012;-72
2023/05/10 02:24:40;;;;;;;0.30;0.20;;;12.50;99.90;;;;;;5114395;27;20653;-71
2023/05/10 02:27:07;;;;;;;0.40;0.30;;;12.40;99.90;;;;;;5114144;28;21256;-71
2023/05/10 02:29:36;;;;;;;0.40;0.40;;;12.40;99.90;;;;;;5113394;28;20683;-71
2023/05/10 02:32:05;;;;;;;0.30;0.20;;;12.50;99.90;;;;;;5114065;28;20714;-71
2023/05/10 02:34:33;;;;;;;0.47;0.20;;;12.40;99.90;;;;;;5112981;28;21005;-71
2023/05/10 02:37:02;;;;;;;0.30;0.30;;;12.40;99.90;;;;;;5113723;28;20694;-71
2023/05/10 02:39:32;;;;;;;0.30;0.20;;;12.50;99.90;;;;;;5113402;27;20658;-71
2023/05/10 02:42:01;;;;;;;0.30;0.20;;;12.40;99.90;;;;;;5113446;28;21252;-71
2023/05/10 02:44:30;;;;;;;1.40;1.30;;;12.40;99.90;;;;;;5113951;28;20752;-71
2023/05/10 02:46:58;;;;;;;0.40;0.27;;;12.40;99.90;;;;;;5113668;28;20645;-71
2023/05/10 02:49:25;;;;;;;0.70;0.40;;;12.50;99.90;;;;;;5113552;28;21213;-71
2023/05/10 02:51:59;;;;;;;0.40;0.30;;;12.50;99.90;;;;;;5113474;28;20646;-72
2023/05/10 02:54:34;;;;;;;0.40;0.30;;;12.50;99.90;;;;;;5105864;28;20618;-71
2023/05/10 02:57:05;;;;;;;0.80;0.50;;;12.50;99.90;;;;;;5113555;28;20640;-71
2023/05/10 02:59:33;;;;;;;0.40;0.20;;;12.40;99.90;;;;;;5113023;28;20619;-71
2023/05/10 03:02:00;;;;;;;0.63;0.47;;;12.40;99.90;;;;;;5113557;28;20684;-71
2023/05/10 03:04:28;;;;;;;0.30;0.20;;;12.40;99.90;;;;;;5113563;28;20682;-71
2023/05/10 03:06:56;;;;;;;0.40;0.40;;;12.40;99.90;;;;;;5112768;28;20656;-71
2023/05/10 03:09:25;;;;;;;1.00;0.50;;;12.40;99.90;;;;;;5112996;28;20631;-71
2023/05/10 03:12:01;;;;;;;0.40;0.30;;;12.40;99.90;;;;;;5113120;28;20646;-71
2023/05/10 03:14:53;;;;;;;0.30;0.23;;;12.50;99.90;;;;;;5113329;28;20739;-71
2023/05/10 03:17:30;;;;;;;0.40;0.27;;;12.40;99.90;;;;;;5112838;27;20657;-71
2023/05/10 03:19:58;;;;;;;0.53;0.40;;;12.30;99.90;;;;;;5112960;28;21072;-71
2023/05/10 03:22:27;;;;;;;0.77;0.77;;;12.30;99.90;;;;;;5113027;28;20644;-71
2023/05/10 03:24:57;;;;;;;0.40;0.30;;;12.40;99.90;;;;;;5113018;28;20665;-71
2023/05/10 03:27:27;;;;;;;0.50;0.50;;;12.40;99.90;;;;;;5112965;28;20634;-71
2023/05/10 03:29:55;;;;;;;0.50;0.40;;;12.40;99.90;;;;;;5111921;28;20727;-71
2023/05/10 03:32:22;;;;;;;0.50;0.50;;;12.40;99.90;;;;;;5112693;28;20696;-71
2023/05/10 03:34:49;;;;;;;0.40;0.40;;;12.40;99.90;;;;;;5111879;28;21161;-71
2023/05/10 03:37:16;;;;;;;0.40;0.40;;;12.40;99.90;;;;;;5112834;27;20995;-71
2023/05/10 03:39:43;;;;;;;0.40;0.33;;;12.50;99.90;;;;;;5111450;28;20632;-71
2023/05/10 03:42:11;;;;;;;0.70;0.70;;;12.50;99.90;;;;;;5112549;28;21306;-71
2023/05/10 03:44:39;;;;;;;0.50;0.50;;;12.40;99.90;;;;;;5112611;28;20646;-71
2023/05/10 03:47:06;;;;;;;0.40;0.40;;;12.50;99.90;;;;;;5112835;28;21043;-71
2023/05/10 03:49:33;;;;;;;0.60;0.60;;;12.50;99.90;;;;;;5112033;28;20629;-71
2023/05/10 03:52:00;;;;;;;0.90;0.60;;;12.50;99.90;;;;;;5112487;28;20740;-71
2023/05/10 03:54:26;;;;;;;0.50;0.50;;;12.50;99.90;;;;;;5112147;28;20619;-71
2023/05/10 03:56:53;;;;;;;0.87;0.57;;;12.50;99.90;;;;;;5112243;28;20646;-71
2023/05/10 03:59:20;;;;;;;0.50;0.40;;;12.50;99.90;;;;;;5111925;28;20629;-71
2023/05/10 04:01:48;;;;;;;0.50;0.50;;;12.50;99.90;;;;;;5112511;28;20649;-71
2023/05/10 04:04:15;;;;;;;0.67;0.43;;;12.50;99.90;;;;;;5112386;28;20658;-71
2023/05/10 04:06:42;;;;;;;0.57;0.43;;;12.50;99.90;;;;;;5112096;28;20642;-71
2023/05/10 04:09:09;;;;;;;0.40;0.40;;;12.60;99.90;;;;;;5112331;28;20630;-71
2023/05/10 04:11:35;;;;;;;0.70;0.70;;;12.70;99.90;;;;;;5102417;28;20646;-71
2023/05/10 04:14:02;;;;;;;0.67;0.67;;;12.60;99.90;;;;;;5112570;28;20622;-71
2023/05/10 04:16:29;;;;;;;0.70;0.60;;;12.50;99.90;;;;;;5111933;28;21038;-71
2023/05/10 04:18:57;;;;;;;0.70;0.63;;;12.60;99.90;;;;;;5112422;28;20628;-71
2023/05/10 04:21:24;;;;;;;0.40;0.40;;;12.50;99.90;;;;;;5111112;28;21209;-71
2023/05/10 04:23:51;;;;;;;1.57;0.60;;;12.40;99.90;;;;;;5111610;28;20622;-71
2023/05/10 04:26:18;;;;;;;0.50;0.50;;;12.50;99.90;;;;;;5111626;28;20660;-71
2023/05/10 04:28:44;;;;;;;1.23;0.87;;;12.50;99.90;;;;;;5111958;28;20622;-71
2023/05/10 04:31:12;;;;;;;0.77;0.77;;;12.50;99.90;;;;;;5111153;27;20748;-71
2023/05/10 04:33:38;;;;;;;0.40;0.40;;;12.50;99.90;;;;;;5110891;28;20955;-71
2023/05/10 04:36:07;;;;;;;0.70;0.70;;;12.50;99.90;;;;;;5111661;28;20726;-71
2023/05/10 04:38:34;;;;;;;0.70;0.63;;;12.50;99.90;;;;;;5111076;28;20641;-71
2023/05/10 04:41:07;;;;;;;0.83;0.83;;;12.40;99.90;;;;;;5111048;28;20638;-71
2023/05/10 04:43:35;;;;;;;0.53;0.53;;;12.50;99.90;;;;;;5111597;28;20622;-71
2023/05/10 04:46:01;;;;;;;0.47;0.40;;;12.50;99.90;;;;;;5111357;28;20716;-71
2023/05/10 04:48:28;;;;;;;1.43;0.60;;;12.50;99.90;;;;;;5111437;28;21192;-71
2023/05/10 04:50:55;;;;;;;0.60;0.50;;;12.40;99.90;;;;;;5110206;28;20653;-71
2023/05/10 04:53:23;;;;;;;0.80;0.80;;;12.40;99.90;;;;;;5110989;28;20630;-71
2023/05/10 04:55:50;;;;;;;0.50;0.40;;;12.40;99.90;;;;;;5111529;28;20718;-72
2023/05/10 04:58:17;;;;;;;0.73;0.73;;;12.40;99.90;;;;;;5111353;28;20632;-71
2023/05/10 05:00:44;;;;;;;0.40;0.40;;;12.30;99.90;;;;;;5110758;28;20650;-71
2023/05/10 05:03:10;;;;;;;0.60;0.50;;;12.50;99.90;;;;;;5111501;28;20629;-71
2023/05/10 05:05:37;;;;;;;0.67;0.67;;;12.50;99.90;;;;;;5110937;28;20669;-71
2023/05/10 05:08:04;;;;;;;0.70;0.70;;;12.50;99.90;;;;;;5111663;28;20625;-71
2023/05/10 05:10:32;;;;;;;0.90;0.90;;;12.50;99.90;;;;;;5110226;28;20646;-71
2023/05/10 05:12:59;;;;;;;0.67;0.67;;;12.70;99.90;;;;;;5111485;28;20622;-71
2023/05/10 05:15:26;;;;;;;0.63;0.57;;;12.70;99.90;;;;;;5111092;28;20740;-71
2023/05/10 05:17:53;;;;;;;0.93;0.50;;;12.70;99.90;;;;;;5111552;28;20714;-72
2023/05/10 05:20:19;;;;;;;0.80;0.63;;;12.70;99.90;;;;;;5110036;28;20626;-71
2023/05/10 05:22:46;;;;;;;0.60;0.60;;;12.70;99.90;;;;;;5103131;28;20650;-71
2023/05/10 05:25:13;;;;;;;0.80;0.80;;;12.80;99.90;;;;;;5110739;28;20657;-71
2023/05/10 05:27:41;;;;;;;0.50;0.50;;;12.80;99.90;;;;;;5111212;28;20665;-71
2023/05/10 05:30:09;;;;;;;1.07;0.50;;;12.80;99.90;;;;;;5110178;28;20930;-71
2023/05/10 05:32:36;;;;;;;1.17;0.50;;;12.90;99.90;;;;;;5110926;28;20630;-71
2023/05/10 05:35:03;;;;;;;1.30;1.20;;;12.90;99.90;;;;;;5110161;28;20985;-71
2023/05/10 05:37:30;;;;;;;0.93;0.70;;;12.90;99.90;;;;;;5110932;28;20623;-71
2023/05/10 05:39:56;;;;;;;0.70;0.70;;;12.90;99.90;;;;;;5110564;28;20990;-71
2023/05/10 05:42:23;;;;;;;0.50;0.50;;;13.00;99.90;;;;;;5110585;28;20653;-71
2023/05/10 05:44:51;;;;;;;2.43;0.80;;;12.90;99.90;;;;;;5111276;28;20654;-71
2023/05/10 05:47:18;;;;;;;0.87;0.67;;;12.90;99.90;;;;;;5110258;28;20648;-72
2023/05/10 05:49:46;;;;;;;0.60;0.60;;;13.00;99.90;;;;;;5110851;28;20632;-71
2023/05/10 05:52:13;;;;;;;1.60;0.70;;;13.10;99.90;;;;;;5110833;28;21040;-71
2023/05/10 05:54:40;;;;;;;0.60;0.60;;;13.10;99.90;;;;;;5111012;28;20680;-71
2023/05/10 05:57:07;;;;;;;0.53;0.53;;;13.00;99.90;;;;;;5110485;28;20646;-71
2023/05/10 05:59:34;;;;;;;0.80;0.80;;;13.10;99.90;;;;;;5109956;28;20627;-71
2023/05/10 06:02:02;;;;;;;0.60;0.60;;;13.10;99.90;;;;;;5110488;28;20648;-71
2023/05/10 06:04:29;;;;;;;0.63;0.50;;;13.10;99.90;;;;;;5114623;28;20650;-70
2023/05/10 06:06:56;;;;;;;1.07;0.93;;;13.20;99.90;;;;;;5114590;28;20734;-70
2023/05/10 06:09:24;;;;;;;0.67;0.40;;;13.20;99.90;;;;;;5113829;28;20647;-70
2023/05/10 06:11:51;;;;;;;0.67;0.67;;;13.20;99.90;;;;;;5114235;28;20643;-70
2023/05/10 06:14:17;;;;;;;0.57;0.57;;;13.30;99.90;;;;;;5114068;28;20629;-70
2023/05/10 06:16:44;;;;;;;0.50;0.50;;;13.20;99.90;;;;;;5113060;28;20657;-70
2023/05/10 06:19:12;;;;;;;0.60;0.60;;;13.20;99.90;;;;;;5114712;27;20621;-70
2023/05/10 06:21:39;;;;;;;0.60;0.60;;;13.30;99.90;;;;;;5113756;28;21032;-70
2023/05/10 06:24:07;;;;;;;1.00;1.00;;;13.40;99.90;;;;;;5114543;28;21179;-69
2023/05/10 06:26:34;;;;;;;0.53;0.53;;;13.40;99.90;;;;;;5113867;28;20690;-69
2023/05/10 06:29:01;;;;;;;0.80;0.80;;;13.30;99.90;;;;;;5113779;28;21217;-68
2023/05/10 06:31:28;;;;;;;0.77;0.63;;;13.40;99.90;;;;;;5113563;28;20658;-68
2023/05/10 06:33:54;;;;;;;0.97;0.90;;;13.30;99.90;;;;;;5111151;27;20630;-69
2023/05/10 06:36:24;;;;;;;0.60;0.60;;;13.20;99.90;;;;;;5108698;28;20644;-68
2023/05/10 06:38:51;;;;;;;0.50;0.43;;;13.30;99.90;;;;;;5114357;28;20614;-69
2023/05/10 06:41:17;;;;;;;0.60;0.60;;;13.30;99.90;;;;;;5113208;28;20647;-71
2023/05/10 06:43:44;;;;;;;0.60;0.53;;;13.20;99.90;;;;;;5113813;28;20608;-70
2023/05/10 06:46:11;;;;;;;0.93;0.83;;;13.30;99.90;;;;;;5105525;28;20664;-71
2023/05/10 06:48:38;;;;;;;1.10;0.60;;;13.30;99.90;;;;;;5114131;28;20624;-71
2023/05/10 06:51:05;;;;;;;0.80;0.80;;;13.30;99.90;;;;;;5113194;28;20652;-70
2023/05/10 06:53:33;;;;;;;0.83;0.83;;;13.20;99.90;;;;;;5113999;28;21239;-70
2023/05/10 06:56:00;;;;;;;2.23;0.93;;;13.20;99.90;;;;;;5113665;28;20652;-71
2023/05/10 06:58:26;;;;;;;0.70;0.70;;;13.10;99.90;;;;;;5114001;28;21056;-71
2023/05/10 07:00:53;;;;;;;1.10;1.00;;;13.20;99.90;;;;;;5112793;28;21244;-71
2023/05/10 07:03:20;;;;;;;1.10;0.93;;;13.30;99.90;;;;;;5113939;28;20616;-71
2023/05/10 07:05:47;;;;;;;0.97;0.97;;;13.30;99.90;;;;;;5113057;27;20678;-71
2023/05/10 07:08:14;;;;;;;1.30;1.20;;;13.40;99.90;;;;;;5113669;28;20618;-71
2023/05/10 07:10:42;;;;;;;1.30;1.00;;;13.50;99.90;;;;;;5112421;28;20736;-71
2023/05/10 07:13:09;;;;;;;0.60;0.47;;;13.50;99.90;;;;;;5113591;28;20846;-72
2023/05/10 07:15:36;;;;;;;1.17;0.80;;;13.70;99.90;;;;;;5110948;28;20651;-71
2023/05/10 07:18:04;;;;;;;0.87;0.80;;;13.80;99.90;;;;;;5113550;27;20623;-71
2023/05/10 07:20:30;;;;;;;0.63;0.63;;;13.90;99.90;;;;;;5113070;28;20677;-71
2023/05/10 07:22:57;;;;;;;0.70;0.70;;;14.10;99.90;;;;;;5113342;28;20625;-71
2023/05/10 07:25:24;;;;;;;0.60;0.60;;;14.10;99.90;;;;;;5112697;28;20670;-71
2023/05/10 07:27:52;;;;;;;1.07;0.70;;;14.10;99.90;;;;;;5113182;27;20627;-71
2023/05/10 07:30:19;;;;;;;0.73;0.50;;;14.10;99.90;;;;;;5112410;28;20632;-71
2023/05/10 07:32:46;;;;;;;0.80;0.80;;;14.10;99.90;;;;;;5113083;28;20664;-72
2023/05/10 07:35:13;;;;;;;0.73;0.73;;;14.00;99.90;;;;;;5113003;28;20631;-71
2023/05/10 07:37:39;;;;;;;1.23;1.00;;;14.00;99.90;;;;;;5112713;28;20653;-71
2023/05/10 07:40:07;;;;;;;0.97;0.70;;;14.10;99.90;;;;;;5104075;28;21159;-71
2023/05/10 07:42:34;;;;;;;1.00;1.00;;;14.30;99.90;;;;;;5112977;28;20627;-71
2023/05/10 07:45:02;;;;;;;0.90;0.90;;;14.30;99.90;;;;;;5113123;28;20653;-71
2023/05/10 07:47:29;;;;;;;0.80;0.80;;;14.30;99.90;;;;;;5112676;28;21220;-71
2023/05/10 07:49:56;;;;;;;1.83;0.83;;;14.40;99.90;;;;;;5112740;27;20620;-71
2023/05/10 07:52:23;;;;;;;0.67;0.67;;;14.40;99.90;;;;;;5112460;28;20665;-71
2023/05/10 07:54:49;;;;;;;0.50;0.40;;;14.30;99.90;;;;;;5112959;28;20632;-71
2023/05/10 07:57:17;;;;;;;0.70;0.60;;;14.10;99.90;;;;;;5112859;28;20655;-71
2023/05/10 07:59:44;;;;;;;0.43;0.43;;;14.20;99.90;;;;;;5111614;28;20627;-71
2023/05/10 08:02:12;;;;;;;0.53;0.47;;;14.20;99.90;;;;;;5112436;28;20689;-71
2023/05/10 08:04:39;;;;;;;0.60;0.60;;;14.30;99.90;;;;;;5112981;28;20625;-71
2023/05/10 08:07:06;;;;;;;0.50;0.50;;;14.10;99.90;;;;;;5112257;28;21240;-71
2023/05/10 08:09:33;;;;;;;0.50;0.50;;;14.20;99.90;;;;;;5111627;28;20617;-71
2023/05/10 08:12:00;;;;;;;0.60;0.60;;;14.20;99.90;;;;;;5112422;28;21005;-71
2023/05/10 08:14:27;;;;;;;0.70;0.70;;;14.30;99.90;;;;;;5111977;28;20617;-71
2023/05/10 08:16:55;;;;;;;0.60;0.60;;;14.30;99.90;;;;;;5111494;28;20971;-71
2023/05/10 08:19:23;;;;;;;4.20;0.60;;;14.20;99.90;;;;;;5111543;28;20612;-71
2023/05/10 08:21:50;;;;;;;0.67;0.67;;;14.30;99.90;;;;;;5103982;28;20755;-71
2023/05/10 08:24:17;;;;;;;0.90;0.67;;;14.20;99.90;;;;;;5112130;28;20620;-71
2023/05/10 08:26:44;;;;;;;0.80;0.80;;;14.30;99.90;;;;;;5112055;28;20668;-71
2023/05/10 08:29:11;;;;;;;0.60;0.30;;;14.50;99.90;;;;;;5112477;28;21011;-71
2023/05/10 08:31:37;;;;;;;0.73;0.50;;;14.40;99.90;;;;;;5110948;28;20664;-71
2023/05/10 08:34:04;;;;;;;0.40;0.30;;;14.40;99.90;;;;;;5111688;28;20617;-71
2023/05/10 08:36:32;;;;;;;0.90;0.70;;;14.40;99.90;;;;;;5112107;28;20640;-71
2023/05/10 08:38:59;;;;;;;0.60;0.60;;;14.50;99.90;;;;;;5112101;28;21188;-71
2023/05/10 08:41:26;;;;;;;0.70;0.70;;;14.60;99.90;;;;;;5111176;28;20673;-71
2023/05/10 08:43:54;;;;;;;0.50;0.50;;;14.70;99.90;;;;;;5111742;28;20613;-71
2023/05/10 08:46:22;;;;;;;0.80;0.80;;;14.60;99.90;;;;;;5111202;28;21212;-71
2023/05/10 08:48:50;;;;;;;0.50;0.40;;;14.50;99.90;;;;;;5112065;28;20617;-71
2023/05/10 08:51:19;;;;;;;0.50;0.50;;;14.60;99.90;;;;;;5111270;28;20993;-71
2023/05/10 08:53:48;;;;;;;0.80;0.70;;;14.60;99.90;;;;;;5112035;28;20627;-71
2023/05/10 08:56:17;;;;;;;2.40;0.93;;;14.60;99.90;;;;;;5111432;28;20736;-71
2023/05/10 08:58:44;;;;;;;0.53;0.53;;;14.70;99.90;;;;;;5111707;28;20624;-71
2023/05/10 09:01:13;;;;;;;0.50;0.50;;;14.80;99.90;;;;;;5110139;28;21223;-71
2023/05/10 09:03:40;;;;;;;0.60;0.53;;;14.70;99.90;;;;;;5111951;28;21214;-71
2023/05/10 09:06:07;;;;;;;0.50;0.50;;;14.70;99.90;;;;;;5111669;28;20671;-71
2023/05/10 09:08:35;;;;;;;0.50;0.50;;;14.60;99.90;;;;;;5103358;28;20613;-71
2023/05/10 09:11:03;;;;;;;0.73;0.73;;;14.80;99.90;;;;;;5110702;28;20652;-71
2023/05/10 09:13:31;;;;;;;0.60;0.60;;;14.80;99.90;;;;;;5111163;28;20621;-71
2023/05/10 09:15:58;;;;;;;0.40;0.40;;;14.90;99.90;;;;;;5109604;28;21298;-71
2023/05/10 09:18:25;;;;;;;1.90;0.40;;;14.90;99.90;;;;;;5111682;28;20617;-71
2023/05/10 09:20:52;;;;;;;0.70;0.53;;;14.80;99.90;;;;;;5111202;28;20645;-71
2023/05/10 09:23:19;;;;;;;0.93;0.50;;;14.80;99.90;;;;;;5111363;28;20644;-71
2023/05/10 09:25:46;;;;;;;0.30;0.30;;;14.70;99.90;;;;;;5111040;28;20692;-71
2023/05/10 09:28:14;;;;;;;0.30;0.30;;;14.70;99.90;;;;;;5111084;28;20617;-71
2023/05/10 09:30:42;;;;;;;0.50;0.50;;;14.40;99.90;;;;;;5110190;28;20670;-71
2023/05/10 09:33:09;;;;;;;0.30;0.20;;;14.30;99.90;;;;;;5111516;28;20617;-71
2023/05/10 09:35:37;;;;;;;0.40;0.30;;;14.30;99.90;;;;;;5111018;28;20702;-71
2023/05/10 09:38:06;;;;;;;0.83;0.60;;;14.20;99.90;;;;;;5104315;28;20673;-71
2023/05/10 09:40:33;;;;;;;0.40;0.23;;;14.30;99.90;;;;;;5114569;28;21184;-71
2023/05/10 09:43:02;;;;;;;0.40;0.30;;;14.50;99.90;;;;;;5114076;28;21031;-71
2023/05/10 09:45:31;;;;;;;0.60;0.60;;;14.60;99.90;;;;;;5115051;28;20648;-71
2023/05/10 09:47:59;;;;;;;0.40;0.40;;;14.70;99.90;;;;;;5115396;28;20632;-71
2023/05/10 09:50:27;;;;;;;0.30;0.30;;;14.70;99.90;;;;;;5114486;28;21026;-71
2023/05/10 09:52:55;;;;;;;0.30;0.30;;;14.80;99.90;;;;;;5115341;28;20624;-71
2023/05/10 09:55:24;;;;;;;0.30;0.30;;;15.00;99.90;;;;;;5106311;28;21122;-71
2023/05/10 09:58:00;;;;;;;0.50;0.40;;;15.00;99.90;;;;;;5115178;28;20622;-71
2023/05/10 10:00:28;;;;;;;0.40;0.40;;;15.30;99.90;;;;;;5113229;28;20740;-71
2023/05/10 10:02:58;;;;;;;0.50;0.50;;;15.10;99.90;;;;;;5115096;27;21013;-70
2023/05/10 10:05:29;;;;;;;0.40;0.37;;;15.10;99.90;;;;;;5113799;28;20653;-70
2023/05/10 10:07:57;;;;;;;0.40;0.40;;;15.30;99.90;;;;;;5115163;28;20628;-70
2023/05/10 10:10:24;;;;;;;0.40;0.40;;;15.30;99.90;;;;;;5114239;28;21175;-70
2023/05/10 10:12:52;;;;;;;0.40;0.30;;;15.50;99.90;;;;;;5114942;28;20637;-71
2023/05/10 10:15:19;;;;;;;0.30;0.30;;;15.60;99.90;;;;;;5114434;28;21257;-70
2023/05/10 10:17:47;;;;;;;0.47;0.40;;;15.60;99.80;;;;;;5114651;28;20609;-70
2023/05/10 10:20:16;;;;;;;0.43;0.43;;;15.50;99.90;;;;;;5113381;28;21151;-70
2023/05/10 10:22:43;;;;;;;0.60;0.40;;;15.30;99.50;;;;;;5114488;28;21211;-70
2023/05/10 10:25:12;;;;;;;0.30;0.30;;;15.30;99.30;;;;;;5114469;28;20661;-70
2023/05/10 10:27:47;;;;;;;0.50;0.50;;;15.30;99.90;;;;;;5114395;28;21010;-70
2023/05/10 10:30:24;;;;;;;0.30;0.20;;;15.20;99.90;;;;;;5114200;28;21165;-70
2023/05/10 10:33:11;;;;;;;0.40;0.40;;;15.20;99.90;;;;;;5113922;28;20997;-72
2023/05/10 10:35:40;;;;;;;0.63;0.60;;;15.30;99.90;;;;;;5114001;28;20647;-71
2023/05/10 10:38:09;;;;;;;1.37;0.40;;;15.30;99.60;;;;;;5114001;28;20624;-72
2023/05/10 10:40:36;;;;;;;0.40;0.40;;;15.30;99.90;;;;;;5113591;28;20645;-72
2023/05/10 10:43:25;;;;;;;0.50;0.30;;;15.60;99.90;;;;;;5113579;28;21193;-69
2023/05/10 10:46:12;;;;;;;0.40;0.40;;;15.70;99.40;;;;;;5113730;28;20650;-69
2023/05/10 10:48:39;;;;;;;0.70;0.60;;;15.90;98.70;;;;;;5113418;28;20626;-69
2023/05/10 10:51:07;;;;;;;0.60;0.60;;;16.10;98.30;;;;;;5112474;28;20644;-69
2023/05/10 10:53:34;;;;;;;0.53;0.40;;;16.10;98.10;;;;;;5113701;28;21240;-69
2023/05/10 10:56:09;;;;;;;0.60;0.50;;;16.10;99.60;;;;;;5113978;28;20687;-69
2023/05/10 10:58:36;;;;;;;0.53;0.53;;;16.20;98.80;;;;;;5113724;28;20621;-69
2023/05/10 11:01:14;;;;;;;0.70;0.40;;;15.80;97.50;;;;;;5112191;28;20748;-69
2023/05/10 11:03:41;;;;;;;0.40;0.30;;;15.30;97.80;;;;;;5113725;28;20955;-69
2023/05/10 11:06:09;;;;;;;0.30;0.20;;;14.80;97.70;;;;;;5113223;28;20668;-69
2023/05/10 11:08:44;;;;;;;0.40;0.37;;;14.70;98.60;;;;;;5114143;28;20620;-69
2023/05/10 11:11:15;;;;;;;0.30;0.27;;;14.60;98.40;;;;;;5113096;28;20653;-69
2023/05/10 11:13:44;;;;;;;0.50;0.50;;;14.70;99.00;;;;;;5105783;28;20616;-69
2023/05/10 11:16:13;;;;;;;1.47;0.53;;;14.80;99.20;;;;;;5113427;28;20663;-69
2023/05/10 11:18:40;;;;;;;0.30;0.30;;;14.80;99.50;;;;;;5112643;28;20619;-69
2023/05/10 11:21:10;;;;;;;0.80;0.40;;;14.90;98.30;;;;;;5113359;28;20704;-69
2023/05/10 11:23:50;;;;;;;0.40;0.40;;;14.80;97.40;;;;;;5113473;28;20635;-69
2023/05/10 11:26:17;;;;;;;2.07;0.20;;;14.60;96.90;;;;;;5113299;28;20710;-68
2023/05/10 11:28:45;;;;;;;0.40;0.40;;;14.60;97.30;;;;;;5113133;28;20623;-69
2023/05/10 11:31:14;;;;;;;0.40;0.40;;;14.60;97.10;;;;;;5112193;27;20652;-69
2023/05/10 11:33:44;;;;;;;0.73;0.73;;;14.50;96.30;;;;;;5112974;27;20632;-69
2023/05/10 11:36:14;;;;;;;0.83;0.80;;;14.50;96.70;;;;;;5113323;28;20676;-69
2023/05/10 11:38:41;;;;;;;0.83;0.40;;;14.50;97.20;;;;;;5113322;28;20617;-69
2023/05/10 11:41:11;;;;;;;1.13;0.53;;;14.60;97.30;;;;;;5112145;27;20637;-69
2023/05/10 11:43:38;;;;;;;0.50;0.50;;;14.60;97.10;;;;;;5112436;28;20620;-69
2023/05/10 11:46:06;;;;;;;0.60;0.50;;;14.50;96.80;;;;;;5112740;28;20640;-69
2023/05/10 11:48:33;;;;;;;0.60;0.60;;;14.50;97.40;;;;;;5112820;27;20670;-70
2023/05/10 11:51:01;;;;;;;0.63;0.60;;;14.50;97.60;;;;;;5112113;28;20649;-69
2023/05/10 11:53:32;;;;;;;0.70;0.70;;;14.50;97.70;;;;;;5112891;28;20613;-69
2023/05/10 11:56:05;;;;;;;0.70;0.70;;;14.40;97.70;;;;;;5112608;28;21244;-69
2023/05/10 11:58:32;;;;;;;0.40;0.40;;;14.40;97.00;;;;;;5112817;28;20616;-69
2023/05/10 12:00:59;;;;;;;0.70;0.70;;;14.40;98.40;;;;;;5110639;28;20651;-69
2023/05/10 12:03:26;;;;;;;0.50;0.50;;;14.40;98.10;;;;;;5112877;28;20704;-69
2023/05/10 12:05:53;;;;;;;0.60;0.60;;;14.50;97.90;;;;;;5112563;28;20648;-69
2023/05/10 12:08:22;;;;;;;0.70;0.70;;;14.50;97.90;;;;;;5112534;28;20661;-69
2023/05/10 12:10:50;;;;;;;0.60;0.60;;;14.60;97.80;;;;;;5111640;28;20738;-69
2023/05/10 12:13:18;;;;;;;0.63;0.60;;;15.00;98.90;;;;;;5112539;28;20627;-69
2023/05/10 12:15:45;;;;;;;0.80;0.67;;;15.30;97.80;;;;;;5112306;28;20645;-69
2023/05/10 12:18:12;;;;;;;0.90;0.80;;;15.30;97.30;;;;;;5112204;28;20630;-69
2023/05/10 12:20:40;;;;;;;0.63;0.60;;;15.40;96.70;;;;;;5111397;28;20648;-69
2023/05/10 12:23:09;;;;;;;0.60;0.50;;;15.60;97.50;;;;;;5111949;28;20730;-69
2023/05/10 12:25:38;;;;;;;0.63;0.63;;;15.80;97.00;;;;;;5112324;28;20647;-69
2023/05/10 12:28:08;;;;;;;0.60;0.60;;;15.80;96.80;;;;;;5112199;28;20649;-69
2023/05/10 12:30:37;;;;;;;0.60;0.50;;;15.60;97.00;;;;;;5111337;28;20649;-69
2023/05/10 12:33:09;;;;;;;0.53;0.53;;;15.70;98.10;;;;;;5111934;28;20629;-69
2023/05/10 12:35:46;;;;;;;0.53;0.50;;;15.50;97.40;;;;;;5111271;28;20652;-69
2023/05/10 12:38:29;;;;;;;1.77;0.57;;;15.60;97.40;;;;;;5105020;28;20629;-69
2023/05/10 12:40:56;;;;;;;0.50;0.50;;;15.80;98.20;;;;;;5109589;28;20710;-69
2023/05/10 12:43:24;;;;;;;1.37;0.37;;;15.70;96.40;;;;;;5112071;28;20621;-69
2023/05/10 12:45:51;;;;;;;0.67;0.50;;;15.60;97.70;;;;;;5111793;28;20642;-69
2023/05/10 12:48:18;;;;;;;0.67;0.67;;;15.50;97.70;;;;;;5111115;28;20665;-69
2023/05/10 12:50:44;;;;;;;0.50;0.50;;;15.20;96.90;;;;;;5111082;28;20996;-69
2023/05/10 12:53:13;;;;;;;0.53;0.50;;;15.20;97.10;;;;;;5112035;28;20632;-69
2023/05/10 12:55:39;;;;;;;0.60;0.60;;;15.00;97.10;;;;;;5111696;28;20649;-69